Time;durP1;ratioP1;P1;durP2;ratioP2;P2;SDS_P1;SDS_P2;PMS_P1;PMS_P2;Temp;Humidity;BMP_temperature;BMP_pressure;BME280_temperature;BME280_humidity;BME280_pressure;Samples;Min_cycle;Max_cycle;Signal;HPM_P1;HPM_P2
2022/05/30 06:43:00;;;;;;;;;2.50;2.50;;;;;18.32;52.60;101014.84;5026250;27;45801;-85
2022/05/30 06:45:25;;;;;;;;;2.25;1.00;;;;;18.46;52.54;101011.00;5014007;27;45487;-85
2022/05/30 06:47:51;;;;;;;;;5.00;5.00;;;;;18.70;51.86;101026.91;5026935;27;45465;-85
2022/05/30 06:50:17;;;;;;;;;3.00;3.00;;;;;18.96;51.42;101031.03;5024539;27;47437;-89
2022/05/30 06:52:42;;;;;;;;;2.33;2.33;;;;;19.25;50.99;101022.31;5031681;27;46162;-90
2022/05/30 06:55:08;;;;;;;;;3.33;3.33;;;;;19.55;50.24;101020.66;5022822;27;45528;-87
2022/05/30 06:58:13;;;;;;;;;4.00;4.00;;;;;19.94;49.22;101021.78;5122681;27;45522;-85
2022/05/30 07:00:38;;;;;;;;;3.00;3.00;;;;;20.27;48.07;101025.13;5104348;27;45441;-84
2022/05/30 07:03:04;;;;;;;;;3.33;3.33;;;;;20.54;47.81;101021.75;5098473;27;45524;-86
2022/05/30 07:05:30;;;;;;;;;5.00;4.67;;;;;20.80;47.02;101021.16;5102010;27;45402;-83
2022/05/30 07:07:58;;;;;;;;;4.00;4.00;;;;;21.06;46.38;101030.53;5098548;27;46061;-84
2022/05/30 07:10:27;;;;;;;;;5.33;3.00;;;;;21.28;45.88;101021.25;5106906;27;45647;-84
2022/05/30 07:12:53;;;;;;;;;4.00;3.00;;;;;21.51;45.72;101017.31;5103009;27;45443;-85
2022/05/30 07:15:19;;;;;;;;;4.00;4.00;;;;;21.70;44.62;101019.94;5102976;27;45477;-87
2022/05/30 07:17:44;;;;;;;;;3.33;3.33;;;;;21.88;44.26;101013.78;5091347;27;46214;-87
2022/05/30 07:20:11;;;;;;;;;4.67;3.00;;;;;22.05;43.63;101022.06;5093644;27;45536;-85
2022/05/30 07:22:36;;;;;;;;;4.33;4.00;;;;;22.21;44.00;101022.25;5092151;27;45587;-85
2022/05/30 07:25:01;;;;;;;;;4.00;4.00;;;;;22.38;43.21;101022.41;5101600;27;45604;-85
2022/05/30 07:27:27;;;;;;;;;8.00;5.00;;;;;22.49;42.68;101016.75;5101976;27;46562;-85
2022/05/30 07:29:52;;;;;;;;;4.00;4.00;;;;;22.60;42.51;101012.16;5100130;27;45406;-85
2022/05/30 07:32:17;;;;;;;;;4.33;4.33;;;;;22.74;41.77;101010.75;5097916;27;46101;-85
2022/05/30 07:34:43;;;;;;;;;4.00;3.33;;;;;22.84;42.01;101006.09;5104172;27;45710;-79
2022/05/30 07:37:08;;;;;;;;;5.33;4.33;;;;;22.94;41.94;101005.13;5109144;27;45602;-82
2022/05/30 07:39:38;;;;;;;;;3.00;3.00;;;;;23.01;41.66;101003.50;5105541;27;45264;-84
2022/05/30 07:42:05;;;;;;;;;2.00;2.00;;;;;23.06;41.19;100993.06;5106876;27;45523;-87
2022/05/30 07:44:30;;;;;;;;;3.00;3.00;;;;;23.11;41.21;101006.97;5108624;27;45592;-87
2022/05/30 07:46:57;;;;;;;;;3.00;3.00;;;;;23.16;40.54;101003.75;5097883;27;46524;-87
2022/05/30 07:49:23;;;;;;;;;4.33;3.67;;;;;23.20;40.49;101002.44;5097489;27;47169;-84
2022/05/30 07:51:48;;;;;;;;;4.00;2.00;;;;;23.26;40.61;100993.66;5097007;27;45488;-81
2022/05/30 07:54:14;;;;;;;;;2.33;2.33;;;;;23.33;39.97;100993.06;5098187;27;45897;-81
2022/05/30 07:56:39;;;;;;;;;4.00;4.00;;;;;23.37;40.01;100995.28;5110219;27;46137;-81
2022/05/30 07:59:05;;;;;;;;;4.00;3.00;;;;;23.42;39.56;101003.78;5103292;27;46815;-80
2022/05/30 08:01:30;;;;;;;;;2.00;2.00;;;;;23.45;39.75;100996.34;5105515;27;45400;-80
2022/05/30 08:03:56;;;;;;;;;4.33;4.33;;;;;23.48;39.43;100993.28;5099607;27;46499;-80
2022/05/30 08:06:25;;;;;;;;;3.00;3.00;;;;;23.51;39.58;100992.97;5105876;27;54379;-81
2022/05/30 08:08:51;;;;;;;;;2.00;2.00;;;;;23.53;39.19;100991.81;5097350;27;45525;-80
2022/05/30 08:11:17;;;;;;;;;2.00;2.00;;;;;23.56;39.18;100998.75;5083419;27;45374;-81
2022/05/30 08:13:45;;;;;;;;;4.00;4.00;;;;;23.58;39.48;100995.91;5090042;27;45590;-81
2022/05/30 08:16:12;;;;;;;;;2.33;2.33;;;;;23.60;38.91;100989.31;5084709;27;46670;-84
2022/05/30 08:18:37;;;;;;;;;2.00;2.00;;;;;23.64;39.14;100997.94;5090269;27;45472;-85
2022/05/30 08:21:04;;;;;;;;;3.00;1.00;;;;;23.68;38.63;100997.47;5091980;27;45411;-85
2022/05/30 08:23:30;;;;;;;;;3.33;3.33;;;;;23.71;38.78;101000.84;5094770;27;46425;-82
2022/05/30 08:25:56;;;;;;;;;2.67;2.67;;;;;23.78;38.62;101004.59;5087850;27;46183;-85
2022/05/30 08:28:22;;;;;;;;;6.00;4.00;;;;;23.83;38.03;101002.25;5086060;27;45581;-84
2022/05/30 08:30:47;;;;;;;;;3.00;3.00;;;;;23.86;38.23;100991.06;5091681;27;45429;-84
2022/05/30 08:33:15;;;;;;;;;2.00;2.00;;;;;23.95;37.94;101000.09;5090457;27;45555;-84
2022/05/30 08:35:41;;;;;;;;;3.67;3.67;;;;;23.98;37.79;100982.66;5089990;27;46309;-89
2022/05/30 08:38:07;;;;;;;;;3.33;3.33;;;;;24.02;37.61;100978.56;5089835;27;45687;-87
2022/05/30 08:43:37;;;;;;;;;3.00;3.00;;;;;24.08;37.67;100977.94;5084114;27;45480;-80
2022/05/30 08:46:09;;;;;;;;;4.67;4.67;;;;;24.14;37.08;100979.13;5089806;27;47025;-81
2022/05/30 08:48:49;;;;;;;;;3.00;2.33;;;;;24.12;37.36;100983.88;5089008;27;45662;-85
2022/05/30 08:51:32;;;;;;;;;2.67;2.67;;;;;24.11;37.18;100985.75;5085281;27;45436;-83
2022/05/30 08:54:00;;;;;;;;;2.00;2.00;;;;;24.11;36.81;100980.31;5090446;27;49682;-82
2022/05/30 08:56:36;;;;;;;;;2.67;1.67;;;;;24.11;36.91;100983.03;5089254;27;46153;-82
2022/05/30 08:59:43;;;;;;;;;4.00;3.00;;;;;24.14;36.59;100988.13;5089032;27;45526;-83
2022/05/30 09:02:26;;;;;;;;;2.67;2.00;;;;;24.14;36.70;100982.69;5087505;27;45303;-82
2022/05/30 09:04:58;;;;;;;;;2.33;2.33;;;;;24.15;36.77;100984.38;5088723;27;45462;-82
2022/05/30 09:07:29;;;;;;;;;3.00;3.00;;;;;24.17;36.08;100990.50;5089253;27;46877;-83
2022/05/30 09:10:13;;;;;;;;;2.00;2.00;;;;;24.20;35.97;100994.75;5088862;27;45493;-82
2022/05/30 09:12:48;;;;;;;;;3.00;3.00;;;;;24.21;36.38;100989.13;5091527;27;45487;-78
2022/05/30 09:15:19;;;;;;;;;2.00;2.00;;;;;24.25;35.79;100991.53;5091337;27;45454;-76
2022/05/30 09:17:53;;;;;;;;;4.33;2.00;;;;;24.27;36.03;100992.22;5088760;27;45555;-79
2022/05/30 09:20:21;;;;;;;;;5.00;4.00;;;;;24.26;35.98;100995.94;5091558;27;45968;-83
2022/05/30 09:22:47;;;;;;;;;3.00;3.00;;;;;24.28;35.78;100994.75;5090872;27;45537;-83
2022/05/30 09:28:00;;;;;;;;;2.00;2.00;;;;;24.32;35.00;100973.59;5088961;27;45483;-87
2022/05/30 09:30:35;;;;;;;;;3.00;3.00;;;;;24.32;35.43;100971.69;5087211;27;45402;-90
2022/05/30 09:33:12;;;;;;;;;2.00;2.00;;;;;24.33;35.25;100973.38;5086000;27;45607;-91
2022/05/30 09:35:37;;;;;;;;;4.00;3.00;;;;;24.35;35.20;100967.78;5090017;27;45706;-90
2022/05/30 09:38:05;;;;;;;;;1.00;1.00;;;;;24.38;35.40;100977.47;5086813;27;45855;-95
2022/05/30 09:40:42;;;;;;;;;3.00;3.00;;;;;24.38;35.10;100966.63;5088843;27;45397;-93
2022/05/30 09:43:30;;;;;;;;;2.00;2.00;;;;;24.41;34.78;100963.56;5089869;27;45503;-89
2022/05/30 09:45:56;;;;;;;;;3.00;1.67;;;;;24.42;35.09;100962.56;5086493;27;45500;-81
2022/05/30 09:48:22;;;;;;;;;3.00;3.00;;;;;24.45;35.00;100962.22;5092616;27;45495;-90
2022/05/30 09:50:56;;;;;;;;;2.00;2.00;;;;;24.44;35.04;100953.22;5093250;27;45432;-93
2022/05/30 09:53:44;;;;;;;;;2.33;2.33;;;;;24.45;35.13;100957.63;5092048;27;45505;-82
2022/05/30 09:56:13;;;;;;;;;1.00;1.00;;;;;24.45;35.20;100962.22;5089401;27;46415;-80
2022/05/30 09:59:34;;;;;;;;;2.00;2.00;;;;;24.48;35.08;100961.88;5089721;27;46041;-80
2022/05/30 10:02:01;;;;;;;;;2.67;2.00;;;;;24.48;34.67;100954.59;5087368;27;45489;-79
2022/05/30 10:04:36;;;;;;;;;3.00;2.33;;;;;24.53;34.71;100953.22;5090010;27;45930;-81
2022/05/30 10:07:06;;;;;;;;;2.00;2.00;;;;;24.53;34.59;100954.09;5089755;27;46355;-81
2022/05/30 10:09:34;;;;;;;;;2.67;2.67;;;;;24.56;34.44;100950.19;5090673;27;45769;-82
2022/05/30 10:12:00;;;;;;;;;3.33;2.33;;;;;24.57;34.23;100939.13;5087945;27;47596;-83
2022/05/30 10:14:32;;;;;;;;;2.00;2.00;;;;;24.58;34.08;100940.00;5091586;27;45457;-81
2022/05/30 10:17:10;;;;;;;;;2.00;2.00;;;;;24.57;34.39;100944.56;5091361;27;45492;-81
2022/05/30 10:19:40;;;;;;;;;2.67;2.67;;;;;24.56;34.35;100945.59;5089858;27;45584;-83
2022/05/30 10:28:43;;;;;;;;;4.00;2.00;;;;;24.60;34.79;100949.66;5084362;27;46063;-84
2022/05/30 10:31:36;;;;;;;;;2.33;2.33;;;;;24.60;34.82;100946.09;5087732;27;45937;-91
2022/05/30 10:34:20;;;;;;;;;2.00;2.00;;;;;24.63;34.67;100937.63;5088040;27;45367;-91
2022/05/30 10:37:03;;;;;;;;;2.00;2.00;;;;;24.67;34.71;100943.53;5091855;27;45794;-88
2022/05/30 10:39:51;;;;;;;;;2.00;2.00;;;;;24.69;34.65;100950.50;5088263;27;45600;-86
2022/05/30 10:42:34;;;;;;;;;2.00;2.00;;;;;24.73;34.73;100951.84;5086495;27;47044;-87
2022/05/30 10:45:06;;;;;;;;;2.00;2.00;;;;;24.77;34.54;100959.66;5084476;27;45508;-87
2022/05/30 10:47:40;;;;;;;;;2.33;2.33;;;;;24.79;34.42;100958.47;5090105;27;45476;-89
2022/05/30 10:50:42;;;;;;;;;3.33;3.33;;;;;24.79;34.42;100952.19;5088626;27;45609;-85
2022/05/30 10:53:16;;;;;;;;;1.00;1.00;;;;;24.76;34.46;100947.13;5086496;27;47199;-87
2022/05/30 10:55:46;;;;;;;;;3.33;3.33;;;;;24.76;34.69;100956.09;5085713;27;45395;-78
2022/05/30 10:58:30;;;;;;;;;1.33;1.33;;;;;24.80;34.46;100953.91;5086307;27;45801;-79
2022/05/30 11:01:03;;;;;;;;;2.00;2.00;;;;;24.83;34.37;100956.28;5091698;27;45488;-79
2022/05/30 11:03:35;;;;;;;;;4.00;3.00;;;;;24.83;34.55;100959.00;5088857;27;45386;-89
2022/05/30 11:06:06;;;;;;;;;1.00;1.00;;;;;24.83;34.36;100959.00;5089890;27;45565;-93
2022/05/30 11:08:45;;;;;;;;;2.67;2.67;;;;;24.82;33.97;100960.84;5091115;27;45933;-94
2022/05/30 11:11:29;;;;;;;;;2.00;2.00;;;;;24.83;33.86;100957.13;5087842;27;45486;-91
2022/05/30 11:14:03;;;;;;;;;1.67;1.67;;;;;24.85;34.02;100959.69;5087049;27;45531;-94
2022/05/30 11:16:49;;;;;;;;;2.00;2.00;;;;;24.87;34.11;100954.91;5090659;27;45882;-91
2022/05/30 11:19:30;;;;;;;;;4.00;2.67;;;;;24.87;33.78;100941.34;5086633;27;47654;-91
2022/05/30 11:22:14;;;;;;;;;2.00;2.00;;;;;24.90;33.91;100949.16;5083287;27;45486;-84
2022/05/30 11:24:40;;;;;;;;;2.00;2.00;;;;;24.89;34.07;100943.88;5089736;27;46528;-82
2022/05/30 11:27:21;;;;;;;;;2.00;2.00;;;;;24.86;33.94;100945.91;5089987;27;45598;-81
2022/05/30 11:30:10;;;;;;;;;1.67;1.67;;;;;24.85;33.50;100948.81;5085221;27;45342;-79
2022/05/30 11:32:44;;;;;;;;;3.33;2.00;;;;;24.84;33.93;100944.38;5090308;27;45453;-79
2022/05/30 11:35:33;;;;;;;;;2.00;2.00;;;;;24.82;33.81;100947.28;5087806;27;45584;-80
2022/05/30 11:38:16;;;;;;;;;3.00;2.33;;;;;24.80;33.40;100946.59;5082057;27;45698;-80
2022/05/30 11:41:14;;;;;;;;;3.33;2.00;;;;;24.81;33.33;100950.97;5088145;27;45603;-79
2022/05/30 11:44:11;;;;;;;;;2.00;2.00;;;;;24.81;33.32;100942.84;5089834;27;45498;-81
2022/05/30 11:47:00;;;;;;;;;3.00;2.00;;;;;24.78;33.07;100937.78;5089328;27;50118;-85
2022/05/30 11:49:35;;;;;;;;;2.33;2.00;;;;;24.81;32.97;100934.69;5091109;27;45464;-84
2022/05/30 11:52:25;;;;;;;;;2.00;2.00;;;;;24.82;33.45;100933.69;5093468;27;45384;-87
2022/05/30 11:55:05;;;;;;;;;2.00;2.00;;;;;24.83;33.11;100937.28;5090336;27;45843;-87
2022/05/30 11:57:30;;;;;;;;;1.67;1.67;;;;;24.85;33.03;100935.25;5088262;27;46450;-83
2022/05/30 12:00:25;;;;;;;;;3.33;2.00;;;;;24.86;32.75;100937.75;5089131;27;45604;-85
2022/05/30 12:03:29;;;;;;;;;1.00;1.00;;;;;24.86;32.77;100937.75;5072497;27;45771;-82
2022/05/30 12:06:09;;;;;;;;;1.33;1.33;;;;;24.89;32.58;100933.03;5091215;27;46078;-83
2022/05/30 12:08:56;;;;;;;;;1.33;1.00;;;;;24.89;32.48;100930.31;5084176;27;46322;-87
2022/05/30 12:11:36;;;;;;;;;0.67;0.67;;;;;24.89;32.57;100920.28;5093235;27;45420;-92
2022/05/30 12:14:39;;;;;;;;;3.00;3.00;;;;;24.90;32.92;100916.56;5087094;27;45574;-89
2022/05/30 14:18:34;;;;;;;;;4.75;4.00;;;;;20.33;39.91;100862.84;5066824;27;45883;-79
2022/05/30 14:21:07;;;;;;;;;5.00;3.33;;;;;20.42;40.17;100855.72;5067571;27;45567;-79
2022/05/30 14:23:34;;;;;;;;;5.00;3.67;;;;;20.58;40.57;100855.13;5061382;27;48992;-79
2022/05/30 14:26:00;;;;;;;;;5.00;2.00;;;;;20.83;40.19;100866.25;5068590;27;45583;-77
2022/05/30 14:28:31;;;;;;;;;5.00;2.00;;;;;21.06;40.54;100858.66;5071881;27;45922;-77
2022/05/30 14:31:00;;;;;;;;;6.00;4.00;;;;;21.31;40.59;100852.72;5072086;27;45567;-77
2022/05/30 14:33:25;;;;;;;;;2.00;2.00;;;;;21.57;40.03;100854.66;5069058;27;46010;-77
2022/05/30 14:35:52;;;;;;;;;3.00;3.00;;;;;21.82;39.54;100852.25;5072674;27;45865;-78
2022/05/30 14:38:39;;;;;;;;;5.33;4.00;;;;;22.10;39.98;100860.25;5078174;27;46364;-78
2022/05/30 14:41:05;;;;;;;;;3.00;3.00;;;;;22.31;39.45;100854.53;5070631;27;45542;-77
2022/05/30 14:43:51;;;;;;;;;2.00;2.00;;;;;22.55;39.53;100855.72;5071109;27;45607;-76
2022/05/30 14:46:23;;;;;;;;;3.33;3.33;;;;;22.76;38.88;100855.34;5071468;27;45553;-77
2022/05/30 14:48:52;;;;;;;;;4.00;2.33;;;;;22.97;39.45;100861.38;5072674;27;46289;-76
2022/05/30 14:51:38;;;;;;;;;6.00;4.67;;;;;23.16;38.57;100857.56;5073833;27;45572;-77
2022/05/30 14:54:07;;;;;;;;;4.33;3.00;;;;;23.33;38.37;100850.38;5072264;27;45528;-74
2022/05/30 14:56:33;;;;;;;;;5.33;3.67;;;;;23.48;38.64;100847.88;5064936;27;45786;-74
2022/05/30 14:59:02;;;;;;;;;6.00;4.33;;;;;23.61;38.26;100841.97;5066708;27;46430;-74
2022/05/30 15:01:28;;;;;;;;;6.33;4.00;;;;;23.75;37.59;100851.28;5075687;27;45524;-79
2022/05/30 15:04:02;;;;;;;;;3.00;2.67;;;;;23.89;36.84;100847.09;5077408;27;45973;-78
2022/05/30 15:06:37;;;;;;;;;3.33;3.33;;;;;24.05;37.03;100845.41;5073841;27;46032;-83
2022/05/30 15:09:04;;;;;;;;;5.67;4.33;;;;;24.15;35.37;100843.38;5073204;27;45596;-84
2022/05/30 15:11:29;;;;;;;;;4.33;4.33;;;;;24.26;34.52;100846.75;5075098;27;45474;-82
2022/05/30 15:14:00;;;;;;;;;4.00;3.00;;;;;24.30;34.77;100843.56;5075746;27;45611;-87
2022/05/30 15:16:27;;;;;;;;;4.00;3.67;;;;;24.34;35.11;100847.63;5075610;27;45500;-79
2022/05/30 15:18:53;;;;;;;;;4.67;3.67;;;;;24.37;34.95;100845.56;5070443;27;46162;-78
2022/05/30 15:21:20;;;;;;;;;3.33;3.33;;;;;24.40;35.00;100845.25;5081272;27;45454;-80
2022/05/30 15:23:46;;;;;;;;;4.67;3.00;;;;;24.45;35.30;100846.41;5080110;27;45826;-79
2022/05/30 15:26:11;;;;;;;;;4.67;4.67;;;;;24.51;35.18;100841.28;5079562;27;45521;-79
2022/05/30 15:28:38;;;;;;;;;5.00;3.00;;;;;24.55;35.31;100843.50;5061950;27;46472;-80
2022/05/30 15:31:05;;;;;;;;;9.67;3.33;;;;;24.60;35.30;100840.25;5062447;27;45544;-77
2022/05/30 15:33:32;;;;;;;;;6.67;4.33;;;;;24.66;35.33;100839.59;5059066;27;46224;-76
2022/05/30 15:35:57;;;;;;;;;6.67;4.00;;;;;24.72;35.31;100836.16;5061062;27;45801;-77
2022/05/30 15:38:23;;;;;;;;;5.67;3.00;;;;;24.79;35.45;100832.75;5067558;28;50374;-76
2022/05/30 15:40:48;;;;;;;;;4.00;2.00;;;;;24.83;35.52;100837.69;5058623;27;46944;-76
2022/05/30 15:43:14;;;;;;;;;2.33;2.33;;;;;24.87;35.69;100840.91;5062113;28;45612;-77
2022/05/30 15:45:39;;;;;;;;;5.00;3.00;;;;;24.89;35.46;100838.00;5064364;28;45444;-81
2022/05/30 15:48:05;;;;;;;;;8.33;7.00;;;;;24.95;35.15;100835.44;5052967;27;45539;-80
2022/05/30 15:50:32;;;;;;;;;7.00;4.33;;;;;25.04;34.51;100829.97;5073073;27;45612;-79
2022/05/30 15:58:30;;;;;;;;;4.00;3.00;;;;;25.15;34.43;100831.44;5061700;27;45552;-84
2022/05/30 16:00:56;;;;;;;;;5.00;5.00;;;;;25.17;34.44;100830.25;5063910;28;45660;-82
2022/05/30 16:03:23;;;;;;;;;3.00;3.00;;;;;25.17;34.33;100826.69;5062134;27;45624;-82
2022/05/30 16:05:50;;;;;;;;;5.67;2.33;;;;;25.18;34.45;100826.50;5072147;28;45418;-84
2022/05/30 16:08:19;;;;;;;;;5.33;4.00;;;;;25.20;34.06;100823.59;5067016;28;49624;-81
2022/05/30 16:10:44;;;;;;;;;5.00;4.00;;;;;25.18;34.35;100817.53;5058339;27;45473;-81
2022/05/30 16:13:11;;;;;;;;;4.00;4.00;;;;;25.19;34.10;100819.19;5064003;28;45413;-83
2022/05/30 16:15:36;;;;;;;;;2.00;2.00;;;;;25.18;34.09;100825.66;5074298;27;45448;-81
2022/05/30 16:18:01;;;;;;;;;5.00;3.00;;;;;25.15;33.97;100824.16;5056005;28;51379;-82
2022/05/30 16:20:28;;;;;;;;;6.33;5.33;;;;;25.15;33.75;100821.44;5063505;28;45416;-77
2022/05/30 16:22:56;;;;;;;;;6.00;3.67;;;;;25.09;34.62;100816.72;5066838;28;54717;-79
2022/05/30 16:25:22;;;;;;;;;4.67;4.00;;;;;25.02;34.81;100813.00;5059171;27;45418;-79
2022/05/30 16:27:50;;;;;;;;;4.00;3.00;;;;;24.98;34.64;100809.81;5061118;27;46146;-79
2022/05/30 16:30:17;;;;;;;;;3.67;3.00;;;;;24.94;34.78;100808.47;5068475;27;47841;-79
2022/05/30 16:32:43;;;;;;;;;6.67;4.67;;;;;24.92;35.10;100805.06;5055305;28;45556;-80
2022/05/30 16:35:09;;;;;;;;;5.00;3.33;;;;;24.92;35.00;100802.34;5056705;28;45652;-78
2022/05/30 16:37:35;;;;;;;;;7.00;3.00;;;;;24.92;35.17;100805.94;5058257;28;46001;-79
2022/05/30 16:40:01;;;;;;;;;4.67;3.00;;;;;24.93;35.21;100798.63;5072808;28;45488;-81
2022/05/30 16:42:26;;;;;;;;;12.33;7.00;;;;;24.95;35.39;100800.16;5063233;27;45632;-79
2022/05/30 16:44:52;;;;;;;;;9.00;7.00;;;;;24.98;35.57;100797.06;5055478;28;45395;-78
2022/05/30 16:47:24;;;;;;;;;3.33;3.00;;;;;25.04;37.35;100794.66;5058193;28;45519;-79
2022/05/30 16:49:50;;;;;;;;;8.33;3.33;;;;;25.08;36.80;100794.13;5062108;27;45633;-81
2022/05/30 16:52:17;;;;;;;;;3.67;3.67;;;;;25.11;36.56;100791.09;5063140;28;45475;-78
2022/05/30 16:54:43;;;;;;;;;6.33;4.33;;;;;25.10;36.23;100793.97;5070202;27;45629;-80
2022/05/30 16:57:08;;;;;;;;;4.00;4.00;;;;;25.10;35.71;100802.94;5057973;27;53362;-78
2022/05/30 16:59:34;;;;;;;;;3.00;3.00;;;;;25.10;35.36;100783.94;5077840;27;45429;-79
2022/05/30 17:01:59;;;;;;;;;5.33;4.00;;;;;25.13;35.35;100797.16;5067635;27;45484;-79
2022/05/30 17:04:25;;;;;;;;;4.00;4.00;;;;;25.14;34.83;100787.16;5059990;28;45709;-79
2022/05/30 17:06:53;;;;;;;;;5.00;4.00;;;;;25.16;34.71;100784.25;5056147;28;45937;-79
2022/05/30 17:09:24;;;;;;;;;6.67;4.33;;;;;25.19;34.92;100786.63;5056289;28;45585;-82
2022/05/30 17:11:49;;;;;;;;;4.00;2.33;;;;;25.17;34.80;100792.22;5056144;27;45638;-76
2022/05/30 17:14:15;;;;;;;;;8.67;5.67;;;;;25.18;34.73;100793.06;5071104;28;45625;-77
2022/05/30 17:16:43;;;;;;;;;4.33;4.00;;;;;25.20;34.57;100786.44;5060051;27;45980;-76
2022/05/30 17:19:10;;;;;;;;;4.00;4.00;;;;;25.22;34.68;100792.53;5077794;27;45452;-77
2022/05/30 17:21:35;;;;;;;;;3.67;2.67;;;;;25.23;34.43;100791.53;5065725;28;45459;-76
2022/05/30 17:24:02;;;;;;;;;5.33;3.00;;;;;25.24;34.54;100797.78;5061173;27;45439;-76
2022/05/30 17:29:20;;;;;;;;;3.67;3.67;;;;;25.21;34.14;100798.97;5059331;28;45415;-75
2022/05/30 17:31:47;;;;;;;;;6.33;3.67;;;;;25.18;33.86;100793.06;5065238;28;45680;-76
2022/05/30 17:34:13;;;;;;;;;7.33;4.00;;;;;25.19;33.74;100790.19;5064952;28;45493;-76
2022/05/30 17:36:39;;;;;;;;;4.00;4.00;;;;;25.19;33.64;100800.19;5054883;27;45998;-77
2022/05/30 17:39:05;;;;;;;;;3.33;2.67;;;;;25.19;33.77;100798.34;5072518;27;45563;-76
2022/05/30 17:41:31;;;;;;;;;6.00;4.33;;;;;25.21;33.45;100800.84;5072738;28;45450;-79
2022/05/30 17:43:57;;;;;;;;;6.67;5.00;;;;;25.21;33.86;100801.69;5056938;27;45500;-79
2022/05/30 17:46:25;;;;;;;;;5.33;4.00;;;;;25.23;33.43;100804.25;5053422;28;45536;-79
2022/05/30 17:48:53;;;;;;;;;3.00;3.00;;;;;25.23;33.15;100805.09;5054161;28;45613;-79
2022/05/30 17:51:31;;;;;;;;;3.00;3.00;;;;;25.21;33.57;100815.28;5060959;27;56638;-79
2022/05/30 17:53:57;;;;;;;;;5.67;5.67;;;;;25.18;33.43;100821.06;5068944;27;45713;-79
2022/05/30 17:56:28;;;;;;;;;7.67;5.00;;;;;25.17;33.50;100818.56;5065556;28;46395;-76
2022/05/30 17:58:53;;;;;;;;;4.00;4.00;;;;;25.15;33.74;100818.72;5060253;28;45488;-76
2022/05/30 18:01:19;;;;;;;;;2.00;2.00;;;;;25.16;33.52;100830.41;5054447;28;45445;-76
2022/05/30 18:03:44;;;;;;;;;4.00;2.00;;;;;25.16;33.55;100825.84;5060542;28;45568;-77
2022/05/30 18:06:19;;;;;;;;;3.00;3.00;;;;;25.16;33.61;100827.69;5054891;28;45628;-77
2022/05/30 18:09:20;;;;;;;;;3.00;3.00;;;;;25.14;33.61;100822.47;5054200;27;45562;-78
2022/05/30 18:11:57;;;;;;;;;3.00;3.00;;;;;25.09;33.91;100831.13;5063883;28;45754;-79
2022/05/30 18:14:43;;;;;;;;;5.33;4.67;;;;;25.07;33.61;100827.75;5064756;28;45569;-78
2022/05/30 18:17:44;;;;;;;;;8.33;4.67;;;;;25.08;33.61;100824.00;5072387;27;47427;-78
2022/05/30 18:20:14;;;;;;;;;7.00;5.33;;;;;25.00;33.86;100824.03;5074023;27;45476;-81
2022/05/30 18:22:55;;;;;;;;;6.00;4.00;;;;;24.92;34.08;100830.34;5060780;28;45992;-77
2022/05/30 18:25:26;;;;;;;;;5.67;4.00;;;;;24.88;34.06;100828.19;5061051;27;45435;-78
2022/05/30 18:27:56;;;;;;;;;4.67;3.00;;;;;24.86;34.10;100828.34;5070161;27;46614;-78
2022/05/30 18:30:24;;;;;;;;;5.00;3.33;;;;;24.84;34.51;100824.94;5060892;28;45483;-79
2022/05/30 18:33:21;;;;;;;;;2.00;2.00;;;;;24.84;34.82;100822.22;5059095;27;55670;-78
2022/05/30 18:35:54;;;;;;;;;4.67;4.00;;;;;24.84;35.04;100835.81;5058145;28;45415;-79
2022/05/30 18:38:48;;;;;;;;;3.33;3.33;;;;;24.86;35.03;100836.50;5065967;28;46944;-79
2022/05/30 18:41:30;;;;;;;;;3.00;3.00;;;;;24.87;35.27;100832.75;5062288;28;47390;-78
2022/05/30 18:44:00;;;;;;;;;5.67;4.00;;;;;24.89;35.35;100835.28;5067182;27;45529;-78
2022/05/30 18:46:27;;;;;;;;;4.33;4.33;;;;;24.89;35.14;100833.41;5069741;27;45319;-79
2022/05/30 18:49:01;;;;;;;;;7.00;5.33;;;;;24.89;35.77;100833.41;5058869;27;47258;-80
2022/05/30 18:51:27;;;;;;;;;4.33;4.00;;;;;24.92;35.53;100838.50;5057056;27;45815;-80
2022/05/30 18:53:53;;;;;;;;;3.00;3.00;;;;;24.93;35.66;100834.75;5057650;27;45514;-80
2022/05/30 18:56:39;;;;;;;;;4.33;4.33;;;;;24.95;35.74;100829.16;5057687;27;45493;-78
2022/05/30 18:59:50;;;;;;;;;4.33;4.00;;;;;24.97;35.96;100838.81;5061648;27;46944;-80
2022/05/30 19:02:17;;;;;;;;;3.67;3.00;;;;;25.02;36.06;100832.00;5054525;28;45429;-78
2022/05/30 19:04:43;;;;;;;;;5.67;4.33;;;;;25.06;36.14;100827.94;5066506;28;45357;-78
2022/05/30 19:07:09;;;;;;;;;3.67;2.33;;;;;25.08;35.91;100826.72;5065302;28;45516;-78
2022/05/30 19:09:35;;;;;;;;;4.33;4.33;;;;;25.09;36.30;100828.41;5061750;28;45502;-78
2022/05/30 19:12:11;;;;;;;;;4.00;4.00;;;;;25.11;36.29;100831.81;5064551;27;45511;-77
2022/05/30 19:17:21;;;;;;;;;3.33;3.33;;;;;25.11;36.44;100830.97;5052354;27;45498;-79
2022/05/30 19:17:45;;;;;;;;;3.67;3.67;;;;;25.12;36.57;100828.06;5062263;27;46026;-78
2022/05/30 19:20:18;;;;;;;;;4.00;3.00;;;;;25.12;36.58;100828.06;5068009;27;45492;-79
2022/05/30 19:22:48;;;;;;;;;4.67;2.67;;;;;25.13;36.29;100829.75;5061411;28;45672;-77
2022/05/30 19:25:17;;;;;;;;;2.33;2.33;;;;;25.16;36.71;100827.69;5064765;27;45476;-79
2022/05/30 19:27:44;;;;;;;;;4.67;4.00;;;;;25.18;36.31;100831.94;5067279;27;45655;-80
2022/05/30 19:30:15;;;;;;;;;8.33;4.67;;;;;25.22;36.30;100835.16;5063190;28;45908;-80
2022/05/30 19:32:41;;;;;;;;;4.00;4.00;;;;;25.25;36.50;100841.06;5062221;27;45542;-81
2022/05/30 19:35:08;;;;;;;;;4.67;3.00;;;;;25.30;36.69;100839.69;5063136;28;45773;-79
2022/05/30 19:37:33;;;;;;;;;4.33;4.33;;;;;25.31;36.75;100842.25;5066759;28;45395;-81
2022/05/30 19:39:58;;;;;;;;;2.33;2.33;;;;;25.34;36.73;100851.91;5057311;28;45398;-82
2022/05/30 19:42:24;;;;;;;;;4.67;4.00;;;;;25.35;36.73;100845.44;5061557;28;51248;-81
2022/05/30 19:44:51;;;;;;;;;5.00;4.00;;;;;25.35;37.11;100840.00;5062412;27;45406;-79
2022/05/30 19:47:17;;;;;;;;;2.00;2.00;;;;;25.35;36.80;100850.88;5060344;27;45761;-79
2022/05/30 19:49:43;;;;;;;;;3.00;3.00;;;;;25.32;36.89;100852.06;5059339;27;46405;-81
2022/05/30 19:52:10;;;;;;;;;2.00;2.00;;;;;25.33;36.91;100851.03;5063912;28;45406;-80
2022/05/30 19:54:36;;;;;;;;;4.00;2.00;;;;;25.32;37.17;100860.22;5062089;28;49100;-83
2022/05/30 19:57:02;;;;;;;;;2.67;2.67;;;;;25.34;36.12;100860.88;5072005;27;45437;-85
2022/05/30 19:59:29;;;;;;;;;3.00;3.00;;;;;25.40;34.61;100859.34;5072387;27;47411;-84
2022/05/30 20:01:55;;;;;;;;;5.67;2.33;;;;;25.44;34.73;100866.09;5062762;28;45442;-79
2022/05/30 20:04:21;;;;;;;;;4.00;3.00;;;;;25.41;35.05;100871.06;5070105;28;45464;-84
2022/05/30 20:06:46;;;;;;;;;5.33;3.33;;;;;25.35;35.47;100870.75;5062768;27;46045;-78
2022/05/30 20:09:13;;;;;;;;;5.00;5.00;;;;;25.32;35.23;100870.22;5068639;27;46811;-78
2022/05/30 20:11:38;;;;;;;;;3.67;3.67;;;;;25.30;35.55;100873.13;5066544;28;45513;-78
2022/05/30 20:14:10;;;;;;;;;3.00;3.00;;;;;25.29;35.61;100881.47;5064438;28;45693;-78
2022/05/30 20:16:38;;;;;;;;;4.00;3.00;;;;;25.28;35.60;100888.75;5066444;27;45620;-78
2022/05/30 20:19:05;;;;;;;;;3.00;3.00;;;;;25.26;36.10;100888.94;5060640;28;46003;-75
2022/05/30 20:21:31;;;;;;;;;5.00;2.00;;;;;25.29;35.84;100890.44;5062484;28;45451;-75
2022/05/30 20:23:56;;;;;;;;;4.00;4.00;;;;;25.31;36.01;100901.16;5064774;27;45514;-75
2022/05/30 20:26:22;;;;;;;;;3.67;3.67;;;;;25.32;36.09;100902.84;5071694;28;49597;-75
2022/05/30 20:28:49;;;;;;;;;4.67;3.00;;;;;25.34;36.06;100900.81;5066627;27;47041;-75
2022/05/30 20:31:14;;;;;;;;;3.00;3.00;;;;;25.35;36.20;100907.91;5062528;28;45352;-74
2022/05/30 20:33:40;;;;;;;;;3.33;3.33;;;;;25.35;36.49;100913.34;5060981;27;45402;-75
2022/05/30 20:36:08;;;;;;;;;3.33;2.33;;;;;25.36;36.50;100909.59;5062308;27;46123;-75
2022/05/30 20:38:33;;;;;;;;;5.00;4.00;;;;;25.35;36.51;100907.91;5079439;27;46231;-75
2022/05/30 20:43:42;;;;;;;;;3.67;3.67;;;;;25.36;36.59;100907.75;5056236;27;45394;-82
2022/05/30 20:46:08;;;;;;;;;2.00;2.00;;;;;25.37;36.87;100908.56;5071315;28;45598;-80
2022/05/30 20:48:34;;;;;;;;;1.67;1.67;;;;;25.36;36.52;100905.03;5068659;28;45454;-80
2022/05/30 20:50:59;;;;;;;;;4.33;4.33;;;;;25.41;37.04;100909.09;5063802;28;45749;-79